createdAt,value
2018-02-24T00:00:51.324Z,-1.99
2018-02-24T00:01:51.315Z,-1.99
2018-02-24T00:02:51.306Z,-2.00
2018-02-24T00:03:51.296Z,-1.92
2018-02-24T00:04:51.288Z,-1.90
2018-02-24T00:05:51.278Z,-1.96
2018-02-24T00:06:51.269Z,-1.84
2018-02-24T00:07:51.259Z,-1.96
2018-02-24T00:08:51.249Z,-1.96
2018-02-24T00:09:51.239Z,-1.99
2018-02-24T00:10:51.232Z,-1.99
2018-02-24T00:11:51.222Z,-2.05
2018-02-24T00:12:51.212Z,-1.96
2018-02-24T00:13:51.204Z,-1.96
2018-02-24T00:14:51.193Z,-1.97
2018-02-24T00:15:51.184Z,-1.93
2018-02-24T00:16:51.174Z,-2.05
2018-02-24T00:17:51.165Z,-2.05
2018-02-24T00:18:51.156Z,-2.04
2018-02-24T00:19:51.148Z,-1.96
2018-02-24T00:20:51.137Z,-2.08
2018-02-24T00:21:51.129Z,-2.04
2018-02-24T00:22:51.117Z,-2.11
2018-02-24T00:23:51.109Z,-2.20
2018-02-24T00:24:51.101Z,-2.08
2018-02-24T00:25:51.096Z,-2.11
2018-02-24T00:26:51.081Z,-2.13
2018-02-24T00:27:51.073Z,-2.15
2018-02-24T00:28:51.061Z,-2.18
2018-02-24T00:29:51.053Z,-2.14
2018-02-24T00:30:51.043Z,-2.11
2018-02-24T00:31:51.034Z,-2.08
2018-02-24T00:32:51.028Z,-1.99
2018-02-24T00:33:51.014Z,-1.90
2018-02-24T00:34:51.005Z,-1.87
2018-02-24T00:35:50.996Z,-1.86
2018-02-24T00:36:50.986Z,-1.86
2018-02-24T00:37:50.977Z,-1.84
2018-02-24T00:38:50.968Z,-1.86
2018-02-24T00:39:50.959Z,-1.74
2018-02-24T00:40:50.949Z,-1.84
2018-02-24T00:41:50.939Z,-1.87
2018-02-24T00:42:50.930Z,-1.86
2018-02-24T00:43:50.922Z,-1.93
2018-02-24T00:44:50.910Z,-1.93
2018-02-24T00:45:50.902Z,-1.90
2018-02-24T00:46:50.893Z,-1.89
2018-02-24T00:47:50.883Z,-1.96
2018-02-24T00:48:50.874Z,-1.84
2018-02-24T00:49:50.864Z,-1.87
2018-02-24T00:50:50.860Z,-1.87
2018-02-24T00:51:50.848Z,-1.84
2018-02-24T00:52:50.835Z,-1.74
2018-02-24T00:53:50.827Z,-1.87
2018-02-24T00:54:50.818Z,-1.76
2018-02-24T00:55:50.809Z,-1.89
2018-02-24T00:56:50.799Z,-1.94
2018-02-24T00:57:50.790Z,-1.92
2018-02-24T00:58:50.783Z,-1.90
2018-02-24T00:59:50.771Z,-1.97
2018-02-24T01:00:50.762Z,-1.99
2018-02-24T01:01:50.752Z,-2.02
2018-02-24T01:02:50.743Z,-2.07
2018-02-24T01:03:50.735Z,-2.00
2018-02-24T01:04:50.726Z,-1.94
2018-02-24T01:05:50.716Z,-1.90
2018-02-24T01:06:50.707Z,-1.82
2018-02-24T01:07:50.697Z,-1.84
2018-02-24T01:08:50.688Z,-1.87
2018-02-24T01:09:50.679Z,-1.84
2018-02-24T01:10:50.669Z,-1.76
2018-02-24T01:11:50.661Z,-1.78
2018-02-24T01:12:50.651Z,-1.75
2018-02-24T01:13:50.640Z,-1.75
2018-02-24T01:14:50.633Z,-1.78
2018-02-24T01:15:50.624Z,-1.90
2018-02-24T01:16:50.613Z,-1.89
2018-02-24T01:17:50.604Z,-1.86
2018-02-24T01:18:50.594Z,-1.82
2018-02-24T01:19:50.586Z,-1.90
2018-02-24T01:20:50.577Z,-1.79
2018-02-24T01:21:50.566Z,-1.79
2018-02-24T01:22:50.559Z,-1.99
2018-02-24T01:23:50.550Z,-2.02
2018-02-24T01:24:50.550Z,-2.04
2018-02-24T01:25:50.530Z,-2.00
2018-02-24T01:26:50.521Z,-2.04
2018-02-24T01:27:50.512Z,-1.96
2018-02-24T01:28:50.501Z,-2.00
2018-02-24T01:29:50.492Z,-1.99
2018-02-24T01:30:50.485Z,-1.90
2018-02-24T01:31:50.475Z,-1.90
2018-02-24T01:32:50.465Z,-1.90
2018-02-24T01:33:50.459Z,-1.90
2018-02-24T01:34:50.447Z,-1.93
2018-02-24T01:35:50.437Z,-1.81
2018-02-24T01:36:50.428Z,-1.75
2018-02-24T01:37:50.419Z,-1.89
2018-02-24T01:38:50.410Z,-1.92
2018-02-24T01:39:50.401Z,-1.89
2018-02-24T01:40:50.389Z,-1.94
2018-02-24T01:41:50.382Z,-1.92
2018-02-24T01:42:50.375Z,-2.00
2018-02-24T01:43:50.364Z,-1.97
2018-02-24T01:44:50.471Z,-2.05
2018-02-24T01:45:50.344Z,-1.92
2018-02-24T01:46:50.335Z,-1.97
2018-02-24T01:47:50.325Z,-1.97
2018-02-24T01:48:50.316Z,-2.04
2018-02-24T01:49:50.306Z,-2.05
2018-02-24T01:50:50.299Z,-2.00
2018-02-24T01:51:50.303Z,-1.99
2018-02-24T01:52:50.278Z,-1.99
2018-02-24T01:53:50.270Z,-1.99
2018-02-24T01:54:50.260Z,-2.00
2018-02-24T01:55:50.252Z,-1.99
2018-02-24T01:56:50.244Z,-2.00
2018-02-24T01:57:50.232Z,-1.97
2018-02-24T01:58:50.224Z,-1.99
2018-02-24T01:59:50.213Z,-2.04
2018-02-24T02:00:50.204Z,-2.07
2018-02-24T02:01:50.194Z,-2.10
2018-02-24T02:02:50.189Z,-2.07
2018-02-24T02:03:50.176Z,-2.05
2018-02-24T02:04:50.166Z,-2.04
2018-02-24T02:05:50.159Z,-1.99
2018-02-24T02:06:50.147Z,-2.08
2018-02-24T02:07:50.139Z,-2.10
2018-02-24T02:08:50.129Z,-2.13
2018-02-24T02:09:50.120Z,-1.99
2018-02-24T02:10:50.111Z,-2.07
2018-02-24T02:11:50.101Z,-1.94
2018-02-24T02:12:50.091Z,-2.02
2018-02-24T02:13:50.083Z,-2.02
2018-02-24T02:14:50.074Z,-1.94
2018-02-24T02:15:50.065Z,-1.96
2018-02-24T02:16:50.055Z,-1.87
2018-02-24T02:17:50.046Z,-1.84
2018-02-24T02:18:50.037Z,-1.78
2018-02-24T02:19:50.028Z,-1.93
2018-02-24T02:20:50.018Z,-1.89
2018-02-24T02:21:50.007Z,-1.97
2018-02-24T02:22:49.999Z,-1.96
2018-02-24T02:23:49.991Z,-2.02
2018-02-24T02:24:49.978Z,-1.97
2018-02-24T02:25:49.970Z,-2.04
2018-02-24T02:26:49.962Z,-2.04
2018-02-24T02:27:49.953Z,-2.00
2018-02-24T02:28:49.943Z,-1.99
2018-02-24T02:29:49.932Z,-1.99
2018-02-24T02:30:49.924Z,-1.89
2018-02-24T02:31:49.916Z,-1.93
2018-02-24T02:32:49.905Z,-1.87
2018-02-24T02:33:49.898Z,-1.93
2018-02-24T02:34:49.886Z,-1.84
2018-02-24T02:35:49.877Z,-1.84
2018-02-24T02:36:49.867Z,-1.90
2018-02-24T02:37:49.861Z,-1.89
2018-02-24T02:38:49.850Z,-1.96
2018-02-24T02:39:49.841Z,-1.99
2018-02-24T02:40:49.829Z,-1.99
2018-02-24T02:41:49.821Z,-1.99
2018-02-24T02:42:49.820Z,-1.94
2018-02-24T02:43:49.802Z,-1.93
2018-02-24T02:44:49.793Z,-1.90
2018-02-24T02:45:49.785Z,-1.81
2018-02-24T02:46:49.775Z,-1.94
2018-02-24T02:47:49.766Z,-1.86
2018-02-24T02:48:49.755Z,-1.82
2018-02-24T02:49:49.747Z,-1.86
2018-02-24T02:50:49.739Z,-1.89
2018-02-24T02:51:49.731Z,-1.86
2018-02-24T02:52:49.719Z,-1.78
2018-02-24T02:53:49.711Z,-1.75
2018-02-24T02:54:49.704Z,-1.75
2018-02-24T02:55:49.692Z,-1.78
2018-02-24T02:56:49.680Z,-1.74
2018-02-24T02:57:49.672Z,-1.84
2018-02-24T02:58:49.665Z,-1.82
2018-02-24T02:59:49.656Z,-1.86
2018-02-24T03:00:49.646Z,-1.90
2018-02-24T03:01:49.635Z,-1.96
2018-02-24T03:02:49.626Z,-1.90
2018-02-24T03:03:49.618Z,-2.04
2018-02-24T03:04:49.608Z,-1.93
2018-02-24T03:05:49.599Z,-1.97
2018-02-24T03:06:49.588Z,-1.84
2018-02-24T03:07:49.579Z,-1.87
2018-02-24T03:08:49.569Z,-1.79
2018-02-24T03:09:49.560Z,-1.76
2018-02-24T03:10:49.550Z,-1.72
2018-02-24T03:11:49.542Z,-1.86
2018-02-24T03:12:49.531Z,-1.84
2018-02-24T03:13:49.523Z,-1.75
2018-02-24T03:14:49.515Z,-1.86
2018-02-24T03:15:49.506Z,-1.89
2018-02-24T03:16:49.495Z,-1.90
2018-02-24T03:17:49.486Z,-1.92
2018-02-24T03:18:49.477Z,-1.93
2018-02-24T03:19:49.468Z,-1.93
2018-02-24T03:20:49.458Z,-1.87
2018-02-24T03:21:49.451Z,-2.02
2018-02-24T03:22:49.439Z,-2.04
2018-02-24T03:23:49.434Z,-2.04
2018-02-24T03:24:49.423Z,-1.94
2018-02-24T03:25:49.410Z,-1.94
2018-02-24T03:26:49.403Z,-1.92
2018-02-24T03:27:49.392Z,-1.97
2018-02-24T03:28:49.384Z,-2.00
2018-02-24T03:29:49.379Z,-2.05
2018-02-24T03:30:49.366Z,-2.05
2018-02-24T03:31:49.357Z,-2.02
2018-02-24T03:32:49.346Z,-2.02
2018-02-24T03:33:49.337Z,-2.05
2018-02-24T03:34:49.328Z,-2.10
2018-02-24T03:35:49.322Z,-2.04
2018-02-24T03:36:49.308Z,-1.96
2018-02-24T03:37:49.301Z,-2.02
2018-02-24T03:38:49.291Z,-1.99
2018-02-24T03:39:49.317Z,-2.00
2018-02-24T03:40:49.270Z,-1.97
2018-02-24T03:41:49.262Z,-2.07
2018-02-24T03:42:49.254Z,-1.97
2018-02-24T03:43:49.244Z,-2.02
2018-02-24T03:44:49.235Z,-1.96
2018-02-24T03:45:49.228Z,-1.94
2018-02-24T03:46:49.219Z,-2.02
2018-02-24T03:47:49.209Z,-1.97
2018-02-24T03:48:49.195Z,-2.18
2018-02-24T03:49:49.186Z,-2.17
2018-02-24T03:50:49.179Z,-2.14
2018-02-24T03:51:49.169Z,-2.17
2018-02-24T03:52:49.158Z,-2.18
2018-02-24T03:53:49.150Z,-2.07
2018-02-24T03:54:49.152Z,-2.17
2018-02-24T03:55:49.130Z,-2.17
2018-02-24T03:56:49.120Z,-2.05
2018-02-24T03:57:49.111Z,-2.02
2018-02-24T03:58:49.103Z,-2.08
2018-02-24T03:59:49.092Z,-2.13
2018-02-24T04:00:49.084Z,-2.10
2018-02-24T04:01:49.074Z,-2.00
2018-02-24T04:02:49.066Z,-2.02
2018-02-24T04:03:49.055Z,-2.04
2018-02-24T04:04:49.046Z,-2.08
2018-02-24T04:05:49.037Z,-2.08
2018-02-24T04:06:49.026Z,-2.11
2018-02-24T04:07:49.017Z,-2.07
2018-02-24T04:08:49.008Z,-2.05
2018-02-24T04:09:48.999Z,-2.18
2018-02-24T04:10:48.989Z,-2.18
2018-02-24T04:11:48.980Z,-2.13
2018-02-24T04:12:48.971Z,-2.10
2018-02-24T04:13:48.961Z,-2.14
2018-02-24T04:14:48.955Z,-2.13
2018-02-24T04:15:48.942Z,-2.15
2018-02-24T04:16:48.932Z,-2.04
2018-02-24T04:17:48.926Z,-2.15
2018-02-24T04:18:48.913Z,-2.07
2018-02-24T04:19:48.905Z,-2.15
2018-02-24T04:20:48.897Z,-2.15
2018-02-24T04:21:48.886Z,-2.07
2018-02-24T04:22:48.876Z,-2.15
2018-02-24T04:23:48.869Z,-2.18
2018-02-24T04:24:48.857Z,-2.13
2018-02-24T04:25:48.849Z,-2.15
2018-02-24T04:26:48.839Z,-2.11
2018-02-24T04:27:48.829Z,-2.18
2018-02-24T04:28:48.819Z,-2.26
2018-02-24T04:29:48.810Z,-2.29
2018-02-24T04:30:48.801Z,-2.36
2018-02-24T04:31:48.790Z,-2.34
2018-02-24T04:32:48.781Z,-2.22
2018-02-24T04:33:48.773Z,-2.28
2018-02-24T04:34:48.762Z,-2.23
2018-02-24T04:35:48.754Z,-2.17
2018-02-24T04:36:48.743Z,-2.29
2018-02-24T04:37:48.733Z,-2.20
2018-02-24T04:38:48.760Z,-2.28
2018-02-24T04:39:48.716Z,-2.32
2018-02-24T04:40:48.704Z,-2.40
2018-02-24T04:41:48.695Z,-2.42
2018-02-24T04:42:48.687Z,-2.42
2018-02-24T04:43:48.677Z,-2.34
2018-02-24T04:44:48.667Z,-2.32
2018-02-24T04:45:48.657Z,-2.29
2018-02-24T04:46:48.649Z,-2.34
2018-02-24T04:47:48.639Z,-2.26
2018-02-24T04:48:48.628Z,-2.33
2018-02-24T04:49:48.619Z,-2.28
2018-02-24T04:50:48.611Z,-2.17
2018-02-24T04:51:48.599Z,-2.25
2018-02-24T04:52:48.589Z,-2.28
2018-02-24T04:53:48.581Z,-2.22
2018-02-24T04:54:48.572Z,-2.29
2018-02-24T04:55:48.563Z,-2.28
2018-02-24T04:56:48.555Z,-2.25
2018-02-24T04:57:48.543Z,-2.33
2018-02-24T04:58:48.533Z,-2.32
2018-02-24T04:59:48.525Z,-2.28
2018-02-24T05:00:48.513Z,-2.18
2018-02-24T05:01:48.505Z,-2.29
2018-02-24T05:02:48.494Z,-2.28
2018-02-24T05:03:48.485Z,-2.17
2018-02-24T05:04:48.476Z,-2.17
2018-02-24T05:05:48.466Z,-2.32
2018-02-24T05:06:48.458Z,-2.00
2018-02-24T05:07:48.447Z,-2.10
2018-02-24T05:08:48.437Z,-2.15
2018-02-24T05:09:48.427Z,-2.13
2018-02-24T05:10:48.419Z,-2.14
2018-02-24T05:11:48.408Z,-2.15
2018-02-24T05:12:48.400Z,-2.07
2018-02-24T05:13:48.390Z,-2.18
2018-02-24T05:14:48.381Z,-2.13
2018-02-24T05:15:48.372Z,-2.08
2018-02-24T05:16:48.360Z,-2.15
2018-02-24T05:17:48.351Z,-2.33
2018-02-24T05:18:48.344Z,-2.17
2018-02-24T05:19:48.335Z,-2.17
2018-02-24T05:20:48.324Z,-2.20
2018-02-24T05:21:48.313Z,-2.13
2018-02-24T05:22:48.306Z,-2.07
2018-02-24T05:23:48.296Z,-2.15
2018-02-24T05:24:48.286Z,-2.17
2018-02-24T05:25:48.276Z,-2.17
2018-02-24T05:26:48.268Z,-2.11
2018-02-24T05:27:48.259Z,-2.07
2018-02-24T05:28:48.247Z,-2.10
2018-02-24T05:29:48.243Z,-2.15
2018-02-24T05:30:48.230Z,-2.14
2018-02-24T05:31:48.219Z,-2.08
2018-02-24T05:32:48.210Z,-2.13
2018-02-24T05:33:48.201Z,-2.11
2018-02-24T05:34:48.191Z,-2.11
2018-02-24T05:35:48.183Z,-2.10
2018-02-24T05:36:48.176Z,-2.17
2018-02-24T05:37:48.163Z,-2.26
2018-02-24T05:38:48.157Z,-2.26
2018-02-24T05:39:48.145Z,-2.22
2018-02-24T05:40:48.134Z,-2.20
2018-02-24T05:41:48.125Z,-2.28
2018-02-24T05:42:48.115Z,-2.37
2018-02-24T05:43:48.107Z,-2.32
2018-02-24T05:44:48.095Z,-2.33
2018-02-24T05:45:48.087Z,-2.29
2018-02-24T05:46:48.079Z,-2.33
2018-02-24T05:47:48.069Z,-2.33
2018-02-24T05:48:48.063Z,-2.45
2018-02-24T05:49:48.050Z,-2.42
2018-02-24T05:50:48.040Z,-2.40
2018-02-24T05:51:48.032Z,-2.52
2018-02-24T05:52:48.022Z,-2.51
2018-02-24T05:53:48.016Z,-2.50
2018-02-24T05:54:48.003Z,-2.48
2018-02-24T05:55:47.993Z,-2.54
2018-02-24T05:56:47.999Z,-2.55
2018-02-24T05:57:47.976Z,-2.55
2018-02-24T05:58:47.965Z,-2.52
2018-02-24T05:59:47.954Z,-2.50
2018-02-24T06:00:47.943Z,-2.55
2018-02-24T06:01:47.936Z,-2.44
2018-02-24T06:02:47.925Z,-2.39
2018-02-24T06:03:47.916Z,-2.28
2018-02-24T06:04:47.905Z,-2.22
2018-02-24T06:05:47.896Z,-2.32
2018-02-24T06:06:47.888Z,-2.13
2018-02-24T06:07:47.879Z,-2.08
2018-02-24T06:08:47.867Z,-2.02
2018-02-24T06:09:47.858Z,-2.17
2018-02-24T06:10:47.849Z,-2.23
2018-02-24T06:11:47.840Z,-2.25
2018-02-24T06:12:47.829Z,-2.28
2018-02-24T06:13:47.821Z,-2.28
2018-02-24T06:14:47.811Z,-2.39
2018-02-24T06:15:47.857Z,-2.48
2018-02-24T06:16:47.792Z,-2.44
2018-02-24T06:17:47.784Z,-2.51
2018-02-24T06:18:47.773Z,-2.50
2018-02-24T06:19:47.764Z,-2.52
2018-02-24T06:20:47.754Z,-2.52
2018-02-24T06:21:47.746Z,-2.66
2018-02-24T06:22:47.733Z,-2.57
2018-02-24T06:23:47.726Z,-2.68
2018-02-24T06:24:47.715Z,-2.69
2018-02-24T06:25:47.707Z,-2.55
2018-02-24T06:26:47.697Z,-2.65
2018-02-24T06:27:47.688Z,-2.58
2018-02-24T06:28:47.677Z,-2.57
2018-02-24T06:29:47.667Z,-2.58
2018-02-24T06:30:47.659Z,-2.65
2018-02-24T06:31:47.648Z,-2.62
2018-02-24T06:32:47.638Z,-2.68
2018-02-24T06:33:47.629Z,-2.58
2018-02-24T06:34:47.623Z,-2.66
2018-02-24T06:35:47.610Z,-2.61
2018-02-24T06:36:47.600Z,-2.73
2018-02-24T06:37:47.590Z,-2.55
2018-02-24T06:38:47.582Z,-2.72
2018-02-24T06:39:47.571Z,-2.70
2018-02-24T06:40:47.560Z,-2.80
2018-02-24T06:41:47.552Z,-2.68
2018-02-24T06:42:47.543Z,-2.63
2018-02-24T06:43:47.532Z,-2.75
2018-02-24T06:44:47.522Z,-2.73
2018-02-24T06:45:47.514Z,-2.62
2018-02-24T06:46:47.504Z,-2.61
2018-02-24T06:47:47.496Z,-2.55
2018-02-24T06:48:47.538Z,-2.57
2018-02-24T06:49:47.475Z,-2.58
2018-02-24T06:50:47.465Z,-2.57
2018-02-24T06:51:47.456Z,-2.50
2018-02-24T06:52:47.445Z,-2.65
2018-02-24T06:53:47.436Z,-2.58
2018-02-24T06:54:47.428Z,-2.68
2018-02-24T06:55:47.418Z,-2.65
2018-02-24T06:56:47.408Z,-2.66
2018-02-24T06:57:47.398Z,-2.66
2018-02-24T06:58:47.389Z,-2.68
2018-02-24T06:59:47.380Z,-2.65
2018-02-24T07:00:47.383Z,-2.58
2018-02-24T07:01:47.366Z,-2.63
2018-02-24T07:02:47.351Z,-2.69
2018-02-24T07:03:47.340Z,-2.61
2018-02-24T07:04:47.330Z,-2.51
2018-02-24T07:05:47.321Z,-2.48
2018-02-24T07:06:47.311Z,-2.57
2018-02-24T07:07:47.303Z,-2.63
2018-02-24T07:08:47.295Z,-2.55
2018-02-24T07:09:47.283Z,-2.47
2018-02-24T07:10:47.273Z,-2.47
2018-02-24T07:11:47.265Z,-2.50
2018-02-24T07:12:47.253Z,-2.51
2018-02-24T07:13:47.247Z,-2.50
2018-02-24T07:14:47.234Z,-2.45
2018-02-24T07:15:47.226Z,-2.54
2018-02-24T07:16:47.216Z,-2.45
2018-02-24T07:17:47.211Z,-2.48
2018-02-24T07:18:47.200Z,-2.45
2018-02-24T07:19:47.187Z,-2.33
2018-02-24T07:20:47.176Z,-2.14
2018-02-24T07:21:47.169Z,-2.17
2018-02-24T07:22:47.159Z,-2.20
2018-02-24T07:23:47.149Z,-2.04
2018-02-24T07:24:47.138Z,-2.04
2018-02-24T07:25:47.130Z,-2.13
2018-02-24T07:26:47.121Z,-2.23
2018-02-24T07:27:47.111Z,-2.08
2018-02-24T07:28:47.102Z,-2.18
2018-02-24T07:29:47.094Z,-2.17
2018-02-24T07:30:47.082Z,-2.20
2018-02-24T07:31:47.076Z,-2.37
2018-02-24T07:32:47.063Z,-2.36
2018-02-24T07:33:47.055Z,-2.33
2018-02-24T07:34:47.044Z,-2.51
2018-02-24T07:35:47.036Z,-2.57
2018-02-24T07:36:47.027Z,-2.50
2018-02-24T07:37:47.021Z,-2.51
2018-02-24T07:38:47.008Z,-2.48
2018-02-24T07:39:46.999Z,-2.57
2018-02-24T07:40:46.988Z,-2.55
2018-02-24T07:41:46.980Z,-2.50
2018-02-24T07:42:46.971Z,-2.55
2018-02-24T07:43:46.959Z,-2.48
2018-02-24T07:44:46.950Z,-2.52
2018-02-24T07:45:46.940Z,-2.45
2018-02-24T07:46:46.932Z,-2.51
2018-02-24T07:47:46.924Z,-2.42
2018-02-24T07:48:46.913Z,-2.47
2018-02-24T07:49:46.903Z,-2.51
2018-02-24T07:50:46.893Z,-2.51
2018-02-24T07:51:46.886Z,-2.50
2018-02-24T07:52:46.874Z,-2.54
2018-02-24T07:53:46.867Z,-2.52
2018-02-24T07:54:46.856Z,-2.62
2018-02-24T07:55:46.847Z,-2.66
2018-02-24T07:56:46.836Z,-2.61
2018-02-24T07:57:46.830Z,-2.69
2018-02-24T07:58:46.817Z,-2.55
2018-02-24T07:59:46.809Z,-2.51
2018-02-24T08:00:46.798Z,-2.57
2018-02-24T08:01:46.789Z,-2.50
2018-02-24T08:02:46.780Z,-2.51
2018-02-24T08:03:46.774Z,-2.50
2018-02-24T08:04:46.763Z,-2.48
2018-02-24T08:05:46.751Z,-2.51
2018-02-24T08:06:46.743Z,-2.55
2018-02-24T08:07:46.735Z,-2.57
2018-02-24T08:08:46.723Z,-2.57
2018-02-24T08:09:46.712Z,-2.57
2018-02-24T08:10:46.705Z,-2.65
2018-02-24T08:11:46.695Z,-2.65
2018-02-24T08:12:46.686Z,-2.62
2018-02-24T08:13:46.676Z,-2.54
2018-02-24T08:14:46.666Z,-2.54
2018-02-24T08:15:46.656Z,-2.44
2018-02-24T08:16:46.653Z,-2.50
2018-02-24T08:17:46.644Z,-2.47
2018-02-24T08:18:46.632Z,-2.44
2018-02-24T08:19:46.624Z,-2.29
2018-02-24T08:20:46.609Z,-2.32
2018-02-24T08:21:46.600Z,-2.25
2018-02-24T08:22:46.591Z,-2.32
2018-02-24T08:23:46.582Z,-2.25
2018-02-24T08:24:46.571Z,-2.28
2018-02-24T08:25:46.562Z,-2.10
2018-02-24T08:26:46.555Z,-2.10
2018-02-24T08:27:46.544Z,-2.13
2018-02-24T08:28:46.535Z,-2.10
2018-02-24T08:29:46.526Z,-2.11
2018-02-24T08:30:46.516Z,-2.17
2018-02-24T08:31:46.508Z,-2.10
2018-02-24T08:32:46.498Z,-1.99
2018-02-24T08:33:46.488Z,-1.96
2018-02-24T08:34:46.479Z,-1.99
2018-02-24T08:35:46.470Z,-1.99
2018-02-24T08:36:46.460Z,-2.04
2018-02-24T08:37:46.452Z,-1.96
2018-02-24T08:38:46.442Z,-2.10
2018-02-24T08:39:46.434Z,-2.14
2018-02-24T08:40:46.424Z,-2.23
2018-02-24T08:41:46.416Z,-2.17
2018-02-24T08:42:46.418Z,-2.10
2018-02-24T08:43:46.401Z,-2.08
2018-02-24T08:44:46.387Z,-2.28
2018-02-24T08:45:46.419Z,-2.15
2018-02-24T08:46:46.370Z,-2.22
2018-02-24T08:47:46.361Z,-2.15
2018-02-24T08:48:46.353Z,-2.10
2018-02-24T08:49:46.342Z,-2.04
2018-02-24T08:50:46.332Z,-1.94
2018-02-24T08:51:46.629Z,-1.90
2018-02-24T08:52:46.341Z,-1.93
2018-02-24T08:53:46.304Z,-1.81
2018-02-24T08:54:46.297Z,-1.78
2018-02-24T08:55:46.287Z,-1.75
2018-02-24T08:56:46.277Z,-1.61
2018-02-24T08:57:46.269Z,-1.64
2018-02-24T08:58:46.309Z,-1.72
2018-02-24T08:59:46.252Z,-1.66
2018-02-24T09:00:46.242Z,-1.64
2018-02-24T09:01:46.233Z,-1.58
2018-02-24T09:02:46.229Z,-1.63
2018-02-24T09:03:46.215Z,-1.63
2018-02-24T09:04:46.206Z,-1.69
2018-02-24T09:05:46.199Z,-1.66
2018-02-24T09:06:46.189Z,-1.64
2018-02-24T09:07:46.185Z,-1.54
2018-02-24T09:08:46.172Z,-1.54
2018-02-24T09:09:46.163Z,-1.45
2018-02-24T09:10:46.154Z,-1.39
2018-02-24T09:11:46.146Z,-1.25
2018-02-24T09:12:46.138Z,-1.32
2018-02-24T09:13:46.127Z,-1.30
2018-02-24T09:14:46.118Z,-1.30
2018-02-24T09:15:46.111Z,-1.29
2018-02-24T09:16:46.102Z,-1.21
2018-02-24T09:17:46.093Z,-1.11
2018-02-24T09:18:46.085Z,-1.12
2018-02-24T09:19:46.078Z,-1.15
2018-02-24T09:20:46.068Z,-1.17
2018-02-24T09:21:46.058Z,-1.07
2018-02-24T09:22:46.050Z,-0.99
2018-02-24T09:23:46.043Z,-0.99
2018-02-24T09:24:46.033Z,-0.94
2018-02-24T09:25:46.024Z,-1.03
2018-02-24T09:26:46.018Z,-1.09
2018-02-24T09:27:46.009Z,-1.14
2018-02-24T09:28:46.001Z,-1.32
2018-02-24T09:29:45.990Z,-1.30
2018-02-24T09:30:46.249Z,-1.33
2018-02-24T09:31:46.239Z,-1.14
2018-02-24T09:32:45.966Z,-1.18
2018-02-24T09:33:45.958Z,-1.12
2018-02-24T09:34:45.949Z,-1.12
2018-02-24T09:35:45.940Z,-1.18
2018-02-24T09:36:45.932Z,-1.33
2018-02-24T09:37:46.197Z,-1.29
2018-02-24T09:38:45.946Z,-1.30
2018-02-24T09:39:45.906Z,-1.33
2018-02-24T09:40:45.898Z,-1.36
2018-02-24T09:41:45.888Z,-1.35
2018-02-24T09:42:45.880Z,-1.32
2018-02-24T09:43:45.873Z,-1.22
2018-02-24T09:44:45.864Z,-1.15
2018-02-24T09:45:45.857Z,-1.09
2018-02-24T09:46:45.848Z,-0.94
2018-02-24T09:47:45.847Z,-0.99
2018-02-24T09:48:45.830Z,-0.85
2018-02-24T09:49:45.821Z,-0.72
2018-02-24T09:50:45.814Z,-1.00
2018-02-24T09:51:45.804Z,-1.06
2018-02-24T09:52:45.796Z,-1.21
2018-02-24T09:53:45.789Z,-1.14
2018-02-24T09:54:45.780Z,-1.25
2018-02-24T09:55:45.773Z,-1.32
2018-02-24T09:56:45.768Z,-1.19
2018-02-24T09:57:45.754Z,-1.07
2018-02-24T09:58:45.783Z,-1.11
2018-02-24T09:59:45.741Z,-1.09
2018-02-24T10:00:45.729Z,-1.27
2018-02-24T10:01:45.721Z,-1.38
2018-02-24T10:02:45.714Z,-1.25
2018-02-24T10:03:45.705Z,-1.30
2018-02-24T10:04:45.696Z,-1.43
2018-02-24T10:05:45.686Z,-1.36
2018-02-24T10:06:45.677Z,-1.45
2018-02-24T10:07:45.670Z,-1.39
2018-02-24T10:08:45.673Z,-1.42
2018-02-24T10:09:45.652Z,-1.54
2018-02-24T10:10:45.645Z,-1.56
2018-02-24T10:11:45.636Z,-1.46
2018-02-24T10:12:45.628Z,-1.38
2018-02-24T10:13:45.621Z,-1.32
2018-02-24T10:14:45.610Z,-1.32
2018-02-24T10:15:45.602Z,-1.15
2018-02-24T10:16:45.594Z,-1.14
2018-02-24T10:17:45.586Z,-0.99
2018-02-24T10:18:45.578Z,-1.00
2018-02-24T10:19:45.568Z,-0.91
2018-02-24T10:20:45.560Z,-1.01
2018-02-24T10:21:45.551Z,-0.91
2018-02-24T10:22:45.543Z,-0.81
2018-02-24T10:23:45.534Z,-0.81
2018-02-24T10:24:45.526Z,-0.84
2018-02-24T10:25:45.521Z,-0.78
2018-02-24T10:26:45.510Z,-0.91
2018-02-24T10:27:45.501Z,-0.87
2018-02-24T10:28:45.498Z,-0.82
2018-02-24T10:29:45.484Z,-0.69
2018-02-24T10:30:45.476Z,-0.70
2018-02-24T10:31:45.468Z,-0.54
2018-02-24T10:32:45.461Z,-0.31
2018-02-24T10:33:45.452Z,-0.46
2018-02-24T10:34:45.444Z,-0.63
2018-02-24T10:35:45.436Z,-0.51
2018-02-24T10:36:45.427Z,-0.48
2018-02-24T10:37:45.429Z,-0.53
2018-02-24T10:38:45.412Z,-0.66
2018-02-24T10:39:45.404Z,-0.75
2018-02-24T10:40:45.396Z,-0.89
2018-02-24T10:41:45.389Z,-0.81
2018-02-24T10:42:45.381Z,-0.85
2018-02-24T10:43:45.372Z,-0.94
2018-02-24T10:44:45.364Z,-1.03
2018-02-24T10:45:45.356Z,-1.15
2018-02-24T10:46:45.350Z,-1.06
2018-02-24T10:47:45.343Z,-1.17
2018-02-24T10:48:45.332Z,-1.11
2018-02-24T10:49:45.325Z,-1.27
2018-02-24T10:50:45.316Z,-1.25
2018-02-24T10:51:45.308Z,-1.38
2018-02-24T10:52:45.299Z,-1.45
2018-02-24T10:53:45.291Z,-1.48
2018-02-24T10:54:45.282Z,-1.40
2018-02-24T10:55:45.272Z,-1.33
2018-02-24T10:56:45.264Z,-1.39
2018-02-24T10:57:45.259Z,-1.30
2018-02-24T10:58:45.250Z,-1.29
2018-02-24T10:59:45.240Z,-1.17
2018-02-24T11:00:45.232Z,-1.32
2018-02-24T11:01:45.224Z,-1.39
2018-02-24T11:02:45.214Z,-1.35
2018-02-24T11:03:45.208Z,-1.39
2018-02-24T11:04:45.197Z,-1.58
2018-02-24T11:05:45.188Z,-1.45
2018-02-24T11:06:45.182Z,-1.35
2018-02-24T11:07:45.173Z,-1.39
2018-02-24T11:08:45.164Z,-1.33
2018-02-24T11:09:45.156Z,-1.39
2018-02-24T11:10:45.147Z,-1.29
2018-02-24T11:11:45.140Z,-1.12
2018-02-24T11:12:45.417Z,-0.99
2018-02-24T11:13:45.121Z,-0.78
2018-02-24T11:14:45.114Z,-0.96
2018-02-24T11:15:45.105Z,-0.82
2018-02-24T11:16:45.097Z,-0.80
2018-02-24T11:17:45.106Z,-0.97
2018-02-24T11:18:45.079Z,-0.97
2018-02-24T11:19:45.071Z,-0.97
2018-02-24T11:20:45.063Z,-0.97
2018-02-24T11:21:45.056Z,-0.94
2018-02-24T11:22:45.048Z,-0.75
2018-02-24T11:23:45.039Z,-0.91
2018-02-24T11:24:45.032Z,-0.85
2018-02-24T11:25:45.021Z,-0.85
2018-02-24T11:26:45.013Z,-0.74
2018-02-24T11:27:45.006Z,-0.74
2018-02-24T11:28:44.997Z,-0.66
2018-02-24T11:29:44.988Z,-0.89
2018-02-24T11:30:45.012Z,-1.06
2018-02-24T11:31:44.972Z,-1.03
2018-02-24T11:32:44.968Z,-0.97
2018-02-24T11:33:44.957Z,-0.97
2018-02-24T11:34:44.948Z,-0.94
2018-02-24T11:35:44.939Z,-0.84
2018-02-24T11:36:44.931Z,-0.78
2018-02-24T11:37:44.922Z,-0.66
2018-02-24T11:38:44.915Z,-0.64
2018-02-24T11:39:44.907Z,-0.64
2018-02-24T11:40:44.897Z,-0.53
2018-02-24T11:41:44.890Z,-0.35
2018-02-24T11:42:44.883Z,-0.31
2018-02-24T11:43:44.875Z,-0.30
2018-02-24T11:44:44.864Z,-0.26
2018-02-24T11:45:44.859Z,-0.30
2018-02-24T11:46:44.850Z,-0.27
2018-02-24T11:47:44.841Z,-0.44
2018-02-24T11:48:44.835Z,-0.36
2018-02-24T11:49:44.826Z,-0.38
2018-02-24T11:50:44.822Z,-0.48
2018-02-24T11:51:44.811Z,-0.85
2018-02-24T11:52:44.801Z,-0.81
2018-02-24T11:53:44.793Z,-0.77
2018-02-24T11:54:44.786Z,-0.75
2018-02-24T11:55:44.778Z,-0.69
2018-02-24T11:56:44.770Z,-0.69
2018-02-24T11:57:44.762Z,-0.67
2018-02-24T11:58:44.754Z,-0.75
2018-02-24T11:59:44.745Z,-0.84
2018-02-24T12:00:44.741Z,-0.82
2018-02-24T12:01:44.730Z,-0.70
2018-02-24T12:02:44.722Z,-0.85
2018-02-24T12:03:44.714Z,-0.81
2018-02-24T12:04:44.705Z,-0.84
2018-02-24T12:05:44.700Z,-0.69
2018-02-24T12:06:44.690Z,-0.81
2018-02-24T12:07:44.683Z,-0.82
2018-02-24T12:08:44.674Z,-0.78
2018-02-24T12:09:44.666Z,-0.85
2018-02-24T12:10:44.657Z,-0.80
2018-02-24T12:11:44.654Z,-0.80
2018-02-24T12:12:44.642Z,-0.70
2018-02-24T12:13:44.655Z,-0.78
2018-02-24T12:14:44.626Z,-0.63
2018-02-24T12:15:44.617Z,-0.72
2018-02-24T12:16:44.608Z,-0.69
2018-02-24T12:17:44.600Z,-0.63
2018-02-24T12:18:44.592Z,-0.63
2018-02-24T12:19:44.584Z,-0.54
2018-02-24T12:20:44.576Z,-0.42
2018-02-24T12:21:44.568Z,-0.57
2018-02-24T12:22:44.560Z,-0.64
2018-02-24T12:23:44.553Z,-0.53
2018-02-24T12:24:44.542Z,-0.45
2018-02-24T12:25:44.539Z,-0.49
2018-02-24T12:26:44.529Z,-0.44
2018-02-24T12:27:44.520Z,-0.38
2018-02-24T12:28:44.512Z,-0.24
2018-02-24T12:29:44.503Z,-0.38
2018-02-24T12:30:44.496Z,-0.42
2018-02-24T12:31:44.489Z,-0.48
2018-02-24T12:32:44.479Z,-0.54
2018-02-24T12:33:44.473Z,-0.63
2018-02-24T12:34:44.463Z,-0.67
2018-02-24T12:35:44.456Z,-0.77
2018-02-24T12:36:44.451Z,-0.97
2018-02-24T12:37:44.440Z,-0.94
2018-02-24T12:38:44.438Z,-0.97
2018-02-24T12:39:44.424Z,-0.93
2018-02-24T12:40:44.416Z,-0.74
2018-02-24T12:41:44.406Z,-0.77
2018-02-24T12:42:44.399Z,-0.75
2018-02-24T12:43:44.393Z,-0.62
2018-02-24T12:44:44.382Z,-0.45
2018-02-24T12:45:44.374Z,-0.45
2018-02-24T12:46:44.445Z,-0.44
2018-02-24T12:47:44.359Z,-0.42
2018-02-24T12:48:44.351Z,-0.35
2018-02-24T12:49:44.344Z,-0.36
2018-02-24T12:50:44.334Z,-0.33
2018-02-24T12:51:44.328Z,-0.30
2018-02-24T12:52:44.317Z,-0.31